<?xml version='1.0' encoding='UTF-8'?><gpx version="1.1" creator="JPX - https://github.com/jenetics/jpx" xmlns="http://www.topografix.com/GPX/1/1"><trk><trkseg><trkpt lat="44.1915191" lon="8.4094577"><ele>232.0</ele><time>2026-04-26T14:56:36.413Z</time></trkpt><trkpt lat="44.1914541" lon="8.4094428"><ele>228.0</ele><time>2026-04-26T14:56:41.38Z</time></trkpt><trkpt lat="44.1913929" lon="8.4094013"><ele>224.0</ele><time>2026-04-26T14:56:46.413Z</time></trkpt><trkpt lat="44.191327" lon="8.4093793"><ele>220.0</ele><time>2026-04-26T14:56:52.418Z</time></trkpt><trkpt lat="44.1912596" lon="8.4093556"><ele>216.0</ele><time>2026-04-26T14:56:59.444Z</time></trkpt><trkpt lat="44.1912005" lon="8.4093021"><ele>212.0</ele><time>2026-04-26T14:57:06.413Z</time></trkpt><trkpt lat="44.1911669" lon="8.4092265"><ele>208.0</ele><time>2026-04-26T14:57:12.413Z</time></trkpt><trkpt lat="44.1911256" lon="8.4091468"><ele>208.0</ele><time>2026-04-26T14:57:20.417Z</time></trkpt><trkpt lat="44.1910683" lon="8.4090989"><ele>208.0</ele><time>2026-04-26T14:57:28.445Z</time></trkpt><trkpt lat="44.1910059" lon="8.4090838"><ele>208.0</ele><time>2026-04-26T14:57:37.414Z</time></trkpt><trkpt lat="44.1909634" lon="8.4090139"><ele>208.0</ele><time>2026-04-26T14:57:49.385Z</time></trkpt><trkpt lat="44.1909058" lon="8.408961"><ele>208.0</ele><time>2026-04-26T14:57:57.447Z</time></trkpt><trkpt lat="44.1908686" lon="8.4088767"><ele>208.0</ele><time>2026-04-26T14:58:03.414Z</time></trkpt><trkpt lat="44.1908319" lon="8.4088028"><ele>208.0</ele><time>2026-04-26T14:58:11.414Z</time></trkpt><trkpt lat="44.1907759" lon="8.4087525"><ele>207.14285714285714</ele><time>2026-04-26T14:58:20.426Z</time></trkpt><trkpt lat="44.1907697" lon="8.4086649"><ele>206.2857142857143</ele><time>2026-04-26T14:58:31.414Z</time></trkpt><trkpt lat="44.1907568" lon="8.4085727"><ele>205.42857142857144</ele><time>2026-04-26T14:58:40.414Z</time></trkpt><trkpt lat="44.190729" lon="8.4084928"><ele>204.57142857142856</ele><time>2026-04-26T14:58:49.428Z</time></trkpt><trkpt lat="44.1906938" lon="8.4084099"><ele>203.71428571428572</ele><time>2026-04-26T14:58:58.414Z</time></trkpt><trkpt lat="44.1906658" lon="8.4083281"><ele>202.85714285714286</ele><time>2026-04-26T14:59:05.413Z</time></trkpt><trkpt lat="44.1906244" lon="8.4082559"><ele>202.0</ele><time>2026-04-26T14:59:10.413Z</time></trkpt><trkpt lat="44.1905685" lon="8.4081906"><ele>202.0</ele><time>2026-04-26T14:59:17.424Z</time></trkpt><trkpt lat="44.1905299" lon="8.4081162"><ele>202.0</ele><time>2026-04-26T14:59:26.4Z</time></trkpt><trkpt lat="44.1904736" lon="8.4080652"><ele>202.0</ele><time>2026-04-26T14:59:46.427Z</time></trkpt><trkpt lat="44.1904143" lon="8.4080224"><ele>202.0</ele><time>2026-04-26T14:59:54.355Z</time></trkpt><trkpt lat="44.1903474" lon="8.4080385"><ele>202.0</ele><time>2026-04-26T15:00:01.414Z</time></trkpt><trkpt lat="44.1902809" lon="8.4080574"><ele>202.0</ele><time>2026-04-26T15:00:11.415Z</time></trkpt><trkpt lat="44.1902158" lon="8.4080766"><ele>202.0</ele><time>2026-04-26T15:00:21.407Z</time></trkpt><trkpt lat="44.1901609" lon="8.4080296"><ele>202.0</ele><time>2026-04-26T15:00:33.413Z</time></trkpt><trkpt lat="44.1901122" lon="8.4079687"><ele>202.0</ele><time>2026-04-26T15:00:46.437Z</time></trkpt><trkpt lat="44.1900434" lon="8.4079778"><ele>202.0</ele><time>2026-04-26T15:00:57.413Z</time></trkpt><trkpt lat="44.1899911" lon="8.4080306"><ele>202.0</ele><time>2026-04-26T15:01:05.327Z</time></trkpt><trkpt lat="44.1899352" lon="8.4079896"><ele>202.0</ele><time>2026-04-26T15:01:14.342Z</time></trkpt><trkpt lat="44.1898659" lon="8.407999"><ele>202.0</ele><time>2026-04-26T15:01:44.438Z</time></trkpt><trkpt lat="44.1898022" lon="8.4080122"><ele>202.0</ele><time>2026-04-26T15:01:52.413Z</time></trkpt><trkpt lat="44.1897389" lon="8.4080291"><ele>198.14285714285714</ele><time>2026-04-26T15:02:11.432Z</time></trkpt><trkpt lat="44.1896728" lon="8.4080485"><ele>194.28571428571428</ele><time>2026-04-26T15:02:21.422Z</time></trkpt><trkpt lat="44.1896076" lon="8.4080817"><ele>190.42857142857144</ele><time>2026-04-26T15:02:35.415Z</time></trkpt><trkpt lat="44.1895563" lon="8.4081352"><ele>186.57142857142856</ele><time>2026-04-26T15:02:46.434Z</time></trkpt><trkpt lat="44.1894945" lon="8.408173"><ele>182.71428571428572</ele><time>2026-04-26T15:02:58.413Z</time></trkpt><trkpt lat="44.1894318" lon="8.4081868"><ele>178.85714285714286</ele><time>2026-04-26T15:03:09.432Z</time></trkpt><trkpt lat="44.189368" lon="8.4081909"><ele>175.0</ele><time>2026-04-26T15:03:26.413Z</time></trkpt><trkpt lat="44.1892989" lon="8.4081894"><ele>175.0</ele><time>2026-04-26T15:03:39.435Z</time></trkpt><trkpt lat="44.1893307" lon="8.4080999"><ele>175.0</ele><time>2026-04-26T15:04:12.365Z</time></trkpt><trkpt lat="44.1893638" lon="8.4080192"><ele>175.0</ele><time>2026-04-26T15:04:21.414Z</time></trkpt><trkpt lat="44.1893567" lon="8.407917"><ele>175.0</ele><time>2026-04-26T15:04:56.413Z</time></trkpt><trkpt lat="44.1893665" lon="8.407822"><ele>175.0</ele><time>2026-04-26T15:05:06.423Z</time></trkpt><trkpt lat="44.189403" lon="8.4077484"><ele>175.0</ele><time>2026-04-26T15:05:18.345Z</time></trkpt><trkpt lat="44.1894228" lon="8.4076613"><ele>175.0</ele><time>2026-04-26T15:05:30.419Z</time></trkpt><trkpt lat="44.1894784" lon="8.4076042"><ele>174.0</ele><time>2026-04-26T15:05:39.328Z</time></trkpt><trkpt lat="44.1895096" lon="8.4075209"><ele>173.0</ele><time>2026-04-26T15:05:48.414Z</time></trkpt><trkpt lat="44.1895511" lon="8.4074483"><ele>172.0</ele><time>2026-04-26T15:05:57.413Z</time></trkpt><trkpt lat="44.1895751" lon="8.4073603"><ele>171.0</ele><time>2026-04-26T15:06:09.414Z</time></trkpt><trkpt lat="44.189602" lon="8.4072809"><ele>170.0</ele><time>2026-04-26T15:06:16.413Z</time></trkpt><trkpt lat="44.1896491" lon="8.4072175"><ele>169.0</ele><time>2026-04-26T15:06:23.414Z</time></trkpt><trkpt lat="44.189699" lon="8.4071491"><ele>168.0</ele><time>2026-04-26T15:06:31.432Z</time></trkpt><trkpt lat="44.1896881" lon="8.4070605"><ele>168.0</ele><time>2026-04-26T15:06:40.414Z</time></trkpt><trkpt lat="44.1896366" lon="8.4070053"><ele>168.0</ele><time>2026-04-26T15:06:48.327Z</time></trkpt><trkpt lat="44.1895996" lon="8.4069334"><ele>168.0</ele><time>2026-04-26T15:06:56.365Z</time></trkpt><trkpt lat="44.1895516" lon="8.4068731"><ele>168.0</ele><time>2026-04-26T15:07:04.445Z</time></trkpt><trkpt lat="44.1894981" lon="8.4068267"><ele>168.0</ele><time>2026-04-26T15:07:13.413Z</time></trkpt><trkpt lat="44.1894182" lon="8.4068234"><ele>168.0</ele><time>2026-04-26T15:07:21.337Z</time></trkpt><trkpt lat="44.1893567" lon="8.4067889"><ele>168.0</ele><time>2026-04-26T15:07:31.439Z</time></trkpt><trkpt lat="44.1892994" lon="8.4067439"><ele>168.0</ele><time>2026-04-26T15:07:43.413Z</time></trkpt><trkpt lat="44.1892414" lon="8.4066959"><ele>168.0</ele><time>2026-04-26T15:07:55.422Z</time></trkpt><trkpt lat="44.1891921" lon="8.406639"><ele>168.0</ele><time>2026-04-26T15:08:03.45Z</time></trkpt><trkpt lat="44.1891384" lon="8.4065915"><ele>168.0</ele><time>2026-04-26T15:08:14.413Z</time></trkpt><trkpt lat="44.1890919" lon="8.4065128"><ele>168.0</ele><time>2026-04-26T15:08:24.422Z</time></trkpt><trkpt lat="44.189043" lon="8.4064405"><ele>168.0</ele><time>2026-04-26T15:08:41.414Z</time></trkpt><trkpt lat="44.1890194" lon="8.4063481"><ele>168.0</ele><time>2026-04-26T15:08:48.414Z</time></trkpt><trkpt lat="44.1889607" lon="8.4063106"><ele>163.0</ele><time>2026-04-26T15:09:00.446Z</time></trkpt><trkpt lat="44.1889281" lon="8.4062315"><ele>158.0</ele><time>2026-04-26T15:09:08.374Z</time></trkpt><trkpt lat="44.1888653" lon="8.4062033"><ele>153.0</ele><time>2026-04-26T15:09:20.416Z</time></trkpt><trkpt lat="44.1888283" lon="8.4061194"><ele>148.0</ele><time>2026-04-26T15:10:20.366Z</time></trkpt><trkpt lat="44.1887601" lon="8.4061284"><ele>143.0</ele><time>2026-04-26T15:10:43.414Z</time></trkpt><trkpt lat="44.1887235" lon="8.4060553"><ele>138.0</ele><time>2026-04-26T15:10:52.433Z</time></trkpt><trkpt lat="44.1887087" lon="8.4059623"><ele>133.0</ele><time>2026-04-26T15:11:06.348Z</time></trkpt><trkpt lat="44.1886952" lon="8.4058751"><ele>133.0</ele><time>2026-04-26T15:11:20.429Z</time></trkpt><trkpt lat="44.1886631" lon="8.4057887"><ele>133.0</ele><time>2026-04-26T15:11:34.413Z</time></trkpt><trkpt lat="44.1886153" lon="8.405724"><ele>133.0</ele><time>2026-04-26T15:11:47.422Z</time></trkpt><trkpt lat="44.1885625" lon="8.4056745"><ele>133.0</ele><time>2026-04-26T15:12:05.413Z</time></trkpt><trkpt lat="44.1885655" lon="8.4055816"><ele>133.0</ele><time>2026-04-26T15:12:14.413Z</time></trkpt><trkpt lat="44.1885761" lon="8.405494"><ele>133.0</ele><time>2026-04-26T15:12:26.456Z</time></trkpt><trkpt lat="44.1885309" lon="8.4054174"><ele>133.0</ele><time>2026-04-26T15:12:36.414Z</time></trkpt><trkpt lat="44.1884729" lon="8.4054659"><ele>134.28571428571428</ele><time>2026-04-26T15:12:48.431Z</time></trkpt><trkpt lat="44.1884086" lon="8.4054543"><ele>135.57142857142856</ele><time>2026-04-26T15:12:59.414Z</time></trkpt><trkpt lat="44.1883514" lon="8.4054125"><ele>136.85714285714286</ele><time>2026-04-26T15:13:11.413Z</time></trkpt><trkpt lat="44.1883" lon="8.4053567"><ele>138.14285714285714</ele><time>2026-04-26T15:13:20.442Z</time></trkpt><trkpt lat="44.1882366" lon="8.4053262"><ele>139.42857142857142</ele><time>2026-04-26T15:13:30.413Z</time></trkpt><trkpt lat="44.1881755" lon="8.4052889"><ele>140.71428571428572</ele><time>2026-04-26T15:13:54.424Z</time></trkpt><trkpt lat="44.1881377" lon="8.4052157"><ele>142.0</ele><time>2026-04-26T15:14:04.414Z</time></trkpt><trkpt lat="44.1880921" lon="8.4051484"><ele>142.0</ele><time>2026-04-26T15:14:17.437Z</time></trkpt><trkpt lat="44.1880455" lon="8.4050849"><ele>142.0</ele><time>2026-04-26T15:14:29.413Z</time></trkpt><trkpt lat="44.187978" lon="8.4050697"><ele>142.0</ele><time>2026-04-26T15:14:41.42Z</time></trkpt><trkpt lat="44.1879282" lon="8.4050079"><ele>142.0</ele><time>2026-04-26T15:14:49.448Z</time></trkpt><trkpt lat="44.1878632" lon="8.404986"><ele>142.0</ele><time>2026-04-26T15:15:01.413Z</time></trkpt><trkpt lat="44.1878051" lon="8.4049397"><ele>142.0</ele><time>2026-04-26T15:15:13.431Z</time></trkpt><trkpt lat="44.1877453" lon="8.4048999"><ele>142.0</ele><time>2026-04-26T15:15:21.458Z</time></trkpt><trkpt lat="44.1876978" lon="8.4048231"><ele>142.0</ele><time>2026-04-26T15:17:12.438Z</time></trkpt><trkpt lat="44.1876412" lon="8.4047731"><ele>142.0</ele><time>2026-04-26T15:17:16.414Z</time></trkpt><trkpt lat="44.1875727" lon="8.4047903"><ele>142.0</ele><time>2026-04-26T15:17:25.413Z</time></trkpt><trkpt lat="44.1875084" lon="8.4047826"><ele>142.0</ele><time>2026-04-26T15:17:32.327Z</time></trkpt><trkpt lat="44.1874435" lon="8.4047724"><ele>142.0</ele><time>2026-04-26T15:17:39.43Z</time></trkpt><trkpt lat="44.187378" lon="8.4047742"><ele>142.0</ele><time>2026-04-26T15:17:48.413Z</time></trkpt><trkpt lat="44.1873153" lon="8.4047622"><ele>142.0</ele><time>2026-04-26T15:17:56.465Z</time></trkpt><trkpt lat="44.1872518" lon="8.4047743"><ele>140.85714285714286</ele><time>2026-04-26T15:18:08.43Z</time></trkpt><trkpt lat="44.1871931" lon="8.4047306"><ele>139.7142857142857</ele><time>2026-04-26T15:18:16.413Z</time></trkpt><trkpt lat="44.1871455" lon="8.4046681"><ele>138.57142857142856</ele><time>2026-04-26T15:18:25.413Z</time></trkpt><trkpt lat="44.1870873" lon="8.4046138"><ele>137.42857142857142</ele><time>2026-04-26T15:18:32.414Z</time></trkpt><trkpt lat="44.1870223" lon="8.4045724"><ele>136.28571428571428</ele><time>2026-04-26T15:18:39.437Z</time></trkpt><trkpt lat="44.1869573" lon="8.404531"><ele>135.14285714285714</ele><time>2026-04-26T15:19:02.415Z</time></trkpt><trkpt lat="44.186892" lon="8.4045573"><ele>134.0</ele><time>2026-04-26T15:19:12.452Z</time></trkpt><trkpt lat="44.1868295" lon="8.4045852"><ele>134.0</ele><time>2026-04-26T15:19:19.414Z</time></trkpt><trkpt lat="44.186764" lon="8.4046065"><ele>134.0</ele><time>2026-04-26T15:19:28.413Z</time></trkpt><trkpt lat="44.1867031" lon="8.4046478"><ele>134.0</ele><time>2026-04-26T15:19:36.431Z</time></trkpt><trkpt lat="44.1866431" lon="8.4046897"><ele>134.0</ele><time>2026-04-26T15:19:44.414Z</time></trkpt><trkpt lat="44.1865792" lon="8.4047322"><ele>134.0</ele><time>2026-04-26T15:19:52.414Z</time></trkpt><trkpt lat="44.1865153" lon="8.4047701"><ele>134.0</ele><time>2026-04-26T15:20:00.413Z</time></trkpt><trkpt lat="44.1864501" lon="8.4047705"><ele>134.0</ele><time>2026-04-26T15:20:09.413Z</time></trkpt><trkpt lat="44.1863766" lon="8.4048243"><ele>131.14285714285714</ele><time>2026-04-26T15:20:42.413Z</time></trkpt><trkpt lat="44.1863112" lon="8.4048309"><ele>128.28571428571428</ele><time>2026-04-26T15:21:58.415Z</time></trkpt><trkpt lat="44.1862828" lon="8.4049254"><ele>125.42857142857142</ele><time>2026-04-26T15:22:24.391Z</time></trkpt><trkpt lat="44.186304" lon="8.4050097"><ele>122.57142857142857</ele><time>2026-04-26T15:22:32.431Z</time></trkpt><trkpt lat="44.1862408" lon="8.4049975"><ele>119.7142857142857</ele><time>2026-04-26T15:22:51.413Z</time></trkpt><trkpt lat="44.1862267" lon="8.4049116"><ele>116.85714285714285</ele><time>2026-04-26T15:23:05.443Z</time></trkpt><trkpt lat="44.1861743" lon="8.4048566"><ele>114.0</ele><time>2026-04-26T15:23:21.413Z</time></trkpt><trkpt lat="44.186099" lon="8.4048361"><ele>114.0</ele><time>2026-04-26T15:24:07.414Z</time></trkpt><trkpt lat="44.1860589" lon="8.4047648"><ele>113.99999999999999</ele><time>2026-04-26T15:24:13.413Z</time></trkpt><trkpt lat="44.185995" lon="8.4048125"><ele>114.0</ele><time>2026-04-26T15:24:27.423Z</time></trkpt><trkpt lat="44.1859672" lon="8.4047294"><ele>114.0</ele><time>2026-04-26T15:24:52.349Z</time></trkpt><trkpt lat="44.1859657" lon="8.4046403"><ele>113.99999999999999</ele><time>2026-04-26T15:25:08.414Z</time></trkpt><trkpt lat="44.1859027" lon="8.4046153"><ele>114.0</ele><time>2026-04-26T15:25:15.385Z</time></trkpt><trkpt lat="44.1858529" lon="8.4046857"><ele>114.0</ele><time>2026-04-26T15:25:31.413Z</time></trkpt><trkpt lat="44.1857874" lon="8.404658"><ele>114.0</ele><time>2026-04-26T15:25:39.344Z</time></trkpt><trkpt lat="44.185726" lon="8.4047009"><ele>113.99999999999999</ele><time>2026-04-26T15:25:55.423Z</time></trkpt><trkpt lat="44.1856569" lon="8.4047014"><ele>114.0</ele><time>2026-04-26T15:26:13.333Z</time></trkpt><trkpt lat="44.1855941" lon="8.4046792"><ele>114.0</ele><time>2026-04-26T15:26:31.445Z</time></trkpt><trkpt lat="44.1855605" lon="8.4046002"><ele>113.99999999999999</ele><time>2026-04-26T15:26:45.413Z</time></trkpt><trkpt lat="44.1854977" lon="8.4045919"><ele>114.0</ele><time>2026-04-26T15:26:56.428Z</time></trkpt><trkpt lat="44.1854327" lon="8.4046175"><ele>114.0</ele><time>2026-04-26T15:27:15.413Z</time></trkpt><trkpt lat="44.1853627" lon="8.4045987"><ele>112.0</ele><time>2026-04-26T15:27:45.414Z</time></trkpt><trkpt lat="44.1852989" lon="8.4045945"><ele>109.99999999999999</ele><time>2026-04-26T15:27:56.435Z</time></trkpt><trkpt lat="44.1852352" lon="8.4046198"><ele>108.0</ele><time>2026-04-26T15:28:13.413Z</time></trkpt><trkpt lat="44.1851655" lon="8.4046324"><ele>106.0</ele><time>2026-04-26T15:28:20.416Z</time></trkpt><trkpt lat="44.185194" lon="8.4045489"><ele>104.0</ele><time>2026-04-26T15:28:35.413Z</time></trkpt><trkpt lat="44.1851573" lon="8.404476"><ele>102.0</ele><time>2026-04-26T15:28:47.449Z</time></trkpt><trkpt lat="44.1851014" lon="8.4044315"><ele>100.0</ele><time>2026-04-26T15:29:10.414Z</time></trkpt><trkpt lat="44.1850327" lon="8.404428"><ele>100.00000000000001</ele><time>2026-04-26T15:29:34.413Z</time></trkpt><trkpt lat="44.1849775" lon="8.4043572"><ele>100.0</ele><time>2026-04-26T15:29:57.444Z</time></trkpt><trkpt lat="44.1849274" lon="8.4043028"><ele>100.0</ele><time>2026-04-26T15:30:05.413Z</time></trkpt><trkpt lat="44.1848635" lon="8.4042774"><ele>100.0</ele><time>2026-04-26T15:30:14.413Z</time></trkpt><trkpt lat="44.1848821" lon="8.4043904"><ele>100.0</ele><time>2026-04-26T15:30:30.383Z</time></trkpt><trkpt lat="44.1848861" lon="8.4044806"><ele>100.00000000000001</ele><time>2026-04-26T15:30:42.414Z</time></trkpt><trkpt lat="44.1849513" lon="8.4044932"><ele>100.0</ele><time>2026-04-26T15:30:52.432Z</time></trkpt><trkpt lat="44.1849184" lon="8.404573"><ele>100.00000000000001</ele><time>2026-04-26T15:31:06.414Z</time></trkpt><trkpt lat="44.1848527" lon="8.4046103"><ele>100.0</ele><time>2026-04-26T15:31:14.384Z</time></trkpt><trkpt lat="44.1847869" lon="8.4045821"><ele>100.0</ele><time>2026-04-26T15:31:32.413Z</time></trkpt><trkpt lat="44.1847343" lon="8.404528"><ele>100.0</ele><time>2026-04-26T15:31:39.414Z</time></trkpt><trkpt lat="44.1846655" lon="8.404527"><ele>100.0</ele><time>2026-04-26T15:31:53.366Z</time></trkpt><trkpt lat="44.1846015" lon="8.4045116"><ele>100.00000000000001</ele><time>2026-04-26T15:32:01.414Z</time></trkpt><trkpt lat="44.1845433" lon="8.4044662"><ele>100.0</ele><time>2026-04-26T15:32:10.367Z</time></trkpt><trkpt lat="44.1844972" lon="8.4043954"><ele>94.57142857142858</ele><time>2026-04-26T15:32:22.436Z</time></trkpt><trkpt lat="44.1844567" lon="8.4043206"><ele>89.14285714285714</ele><time>2026-04-26T15:32:30.414Z</time></trkpt><trkpt lat="44.1844134" lon="8.4042506"><ele>83.71428571428572</ele><time>2026-04-26T15:32:39.414Z</time></trkpt><trkpt lat="44.1843678" lon="8.4041826"><ele>78.28571428571429</ele><time>2026-04-26T15:32:48.331Z</time></trkpt><trkpt lat="44.1843072" lon="8.4041471"><ele>72.85714285714286</ele><time>2026-04-26T15:32:57.467Z</time></trkpt><trkpt lat="44.1842431" lon="8.4041586"><ele>67.42857142857143</ele><time>2026-04-26T15:33:07.362Z</time></trkpt><trkpt lat="44.1841876" lon="8.4042168"><ele>62.0</ele><time>2026-04-26T15:33:18.426Z</time></trkpt><trkpt lat="44.1841217" lon="8.4042002"><ele>62.0</ele><time>2026-04-26T15:33:39.413Z</time></trkpt><trkpt lat="44.1840574" lon="8.4042371"><ele>62.00000000000001</ele><time>2026-04-26T15:33:50.433Z</time></trkpt><trkpt lat="44.1840071" lon="8.404312"><ele>62.0</ele><time>2026-04-26T15:34:09.407Z</time></trkpt><trkpt lat="44.1839444" lon="8.4043009"><ele>62.0</ele><time>2026-04-26T15:34:22.443Z</time></trkpt><trkpt lat="44.1839754" lon="8.4043836"><ele>62.00000000000001</ele><time>2026-04-26T15:34:32.367Z</time></trkpt><trkpt lat="44.1839082" lon="8.4044029"><ele>62.0</ele><time>2026-04-26T15:34:41.47Z</time></trkpt><trkpt lat="44.1838404" lon="8.4043935"><ele>62.0</ele><time>2026-04-26T15:34:54.249Z</time></trkpt><trkpt lat="44.1837836" lon="8.4043353"><ele>57.85714285714286</ele><time>2026-04-26T15:35:06.476Z</time></trkpt><trkpt lat="44.1837199" lon="8.404296"><ele>53.71428571428572</ele><time>2026-04-26T15:35:16.425Z</time></trkpt><trkpt lat="44.1836594" lon="8.4042616"><ele>49.57142857142857</ele><time>2026-04-26T15:35:26.365Z</time></trkpt><trkpt lat="44.1835977" lon="8.4042073"><ele>45.42857142857143</ele><time>2026-04-26T15:35:36.33Z</time></trkpt><trkpt lat="44.1835417" lon="8.4041495"><ele>41.28571428571429</ele><time>2026-04-26T15:35:45.407Z</time></trkpt><trkpt lat="44.1834927" lon="8.4040827"><ele>37.14285714285714</ele><time>2026-04-26T15:35:56.414Z</time></trkpt><trkpt lat="44.1834648" lon="8.4040026"><ele>33.0</ele><time>2026-04-26T15:36:04.413Z</time></trkpt><trkpt lat="44.1834454" lon="8.4039157"><ele>33.0</ele><time>2026-04-26T15:36:15.424Z</time></trkpt><trkpt lat="44.1834186" lon="8.4038325"><ele>33.0</ele><time>2026-04-26T15:36:25.408Z</time></trkpt><trkpt lat="44.183427" lon="8.4037426"><ele>33.0</ele><time>2026-04-26T15:36:34.414Z</time></trkpt><trkpt lat="44.1834141" lon="8.4036523"><ele>33.0</ele><time>2026-04-26T15:36:49.438Z</time></trkpt><trkpt lat="44.1833484" lon="8.4036389"><ele>33.0</ele><time>2026-04-26T15:37:08.413Z</time></trkpt><trkpt lat="44.1832926" lon="8.4035819"><ele>33.0</ele><time>2026-04-26T15:37:34.414Z</time></trkpt><trkpt lat="44.1832809" lon="8.4034688"><ele>33.0</ele><time>2026-04-26T15:37:59.414Z</time></trkpt><trkpt lat="44.1832893" lon="8.4033686"><ele>32.285714285714285</ele><time>2026-04-26T15:38:04.413Z</time></trkpt><trkpt lat="44.183295" lon="8.4032719"><ele>31.571428571428573</ele><time>2026-04-26T15:38:09.413Z</time></trkpt><trkpt lat="44.1833112" lon="8.4031833"><ele>30.857142857142858</ele><time>2026-04-26T15:38:19.442Z</time></trkpt><trkpt lat="44.1833401" lon="8.4031034"><ele>30.142857142857142</ele><time>2026-04-26T15:38:27.413Z</time></trkpt><trkpt lat="44.1833572" lon="8.4030125"><ele>29.42857142857143</ele><time>2026-04-26T15:38:34.414Z</time></trkpt><trkpt lat="44.1833926" lon="8.4029295"><ele>28.714285714285715</ele><time>2026-04-26T15:38:41.416Z</time></trkpt><trkpt lat="44.1834172" lon="8.4028309"><ele>28.0</ele><time>2026-04-26T15:38:47.437Z</time></trkpt><trkpt lat="44.1834246" lon="8.4027347"><ele>27.857142857142858</ele><time>2026-04-26T15:38:54.413Z</time></trkpt><trkpt lat="44.183439" lon="8.4026372"><ele>27.714285714285715</ele><time>2026-04-26T15:39:07.413Z</time></trkpt><trkpt lat="44.1834284" lon="8.4025497"><ele>27.57142857142857</ele><time>2026-04-26T15:39:14.428Z</time></trkpt><trkpt lat="44.1834221" lon="8.4024613"><ele>27.42857142857143</ele><time>2026-04-26T15:39:21.447Z</time></trkpt><trkpt lat="44.1834123" lon="8.4023707"><ele>27.285714285714285</ele><time>2026-04-26T15:39:30.414Z</time></trkpt><trkpt lat="44.1833873" lon="8.4022854"><ele>27.142857142857142</ele><time>2026-04-26T15:39:37.386Z</time></trkpt><trkpt lat="44.1833596" lon="8.4021907"><ele>27.0</ele><time>2026-04-26T15:39:46.437Z</time></trkpt><trkpt lat="44.1833371" lon="8.402107"><ele>35.0</ele><time>2026-04-26T15:39:55.413Z</time></trkpt><trkpt lat="44.1833059" lon="8.4020169"><ele>35.0</ele><time>2026-04-26T15:40:03.414Z</time></trkpt><trkpt lat="44.1832926" lon="8.4019233"><ele>35.0</ele><time>2026-04-26T15:40:11.422Z</time></trkpt><trkpt lat="44.183282" lon="8.4018328"><ele>35.0</ele><time>2026-04-26T15:40:18.414Z</time></trkpt><trkpt lat="44.1832291" lon="8.4018837"><ele>35.0</ele><time>2026-04-26T15:40:28.413Z</time></trkpt></trkseg></trk></gpx>